Briefing drone pour Sancoins

Rechercher une autre localisation

Conditions de vol :


Nous sommes le : Mardi 13 avril 2021
Il est 16:16 UTC (18:16 LT)

Lever de soleil : 04:37 UTC (06:37 LT)
Coucher de soleil : 19:00 UTC (21:00 LT)

Météo

L'essentiel des conditions de vol

VIGILANCE MÉTÉO FRANCE - Cher (18)
Pas de vigilances particulieres
METAR de LFQG
LFQG 131600Z AUTO 02009KT CAVOK 10/M01 Q1028

Date d'émission: 13/04/2021
Heure d'émission: 16:00 UTC
Vent: 020° pour 9 KT (17 km/h)
Visibilité horizontale: > 10 km
Plafond : Plafond et visibilité OK (CAVOK)
Température: 10 °C
Point de rosée: -1 °C
Humidité: 46%
Pression (QNH): 1028 hPa
Prévision 24h pour Nevers (16 km)
Vent : 24° pour 4 KT (16 km/h)
Temperature Maxi: 10 °C
Temperature Min: 10 °C
Humidité : 35%
Condition : Ciel dégagé



Warning: count(): Parameter must be an array or an object that implements Countable in /homepages/6/d509196549/htdocs/droneoxygene/briefing.php on line 743
WEBCAM POUR SANCOINS

Réglementation

Voler en sécurité

CARTES AERONAUTIQUE 1/500.000
CARTES VAC (LFQG)
SUP AIP




Chargement des AIP...
NOTAM (SANCOINS + Terrain à proximité / FIR )




Chargement des NOTAMS...
CONTACT PREFECTURE 18


Avertissement : Les données mises à disposition sont indicatives. Oxygène Drone ne pourra être tenu responsable de dégâts causés aux biens et aux personnes.